sensor_id;sensor_type;location;lat;lon;timestamp;P1;durP1;ratioP1;P2;durP2;ratioP2
2644;SDS011;15377;48.540;9.268;2022-11-11T00:00:26;16.42;;;10.65;;
2644;SDS011;15377;48.540;9.268;2022-11-11T00:02:53;23.07;;;15.97;;
2644;SDS011;15377;48.540;9.268;2022-11-11T00:05:19;18.08;;;12.60;;
2644;SDS011;15377;48.540;9.268;2022-11-11T00:07:45;17.80;;;13.00;;
2644;SDS011;15377;48.540;9.268;2022-11-11T00:10:11;19.40;;;12.43;;
2644;SDS011;15377;48.540;9.268;2022-11-11T00:12:36;18.10;;;11.77;;
2644;SDS011;15377;48.540;9.268;2022-11-11T00:15:02;18.10;;;11.63;;
2644;SDS011;15377;48.540;9.268;2022-11-11T00:17:27;20.53;;;11.87;;
2644;SDS011;15377;48.540;9.268;2022-11-11T00:20:28;21.15;;;12.30;;
2644;SDS011;15377;48.540;9.268;2022-11-11T00:23:21;17.45;;;10.85;;
2644;SDS011;15377;48.540;9.268;2022-11-11T00:26:07;16.95;;;11.48;;
2644;SDS011;15377;48.540;9.268;2022-11-11T00:28:34;20.15;;;10.88;;
2644;SDS011;15377;48.540;9.268;2022-11-11T00:31:03;15.83;;;11.73;;
2644;SDS011;15377;48.540;9.268;2022-11-11T00:33:30;25.60;;;12.52;;
2644;SDS011;15377;48.540;9.268;2022-11-11T00:35:56;22.80;;;15.60;;
2644;SDS011;15377;48.540;9.268;2022-11-11T00:38:22;21.17;;;16.33;;
2644;SDS011;15377;48.540;9.268;2022-11-11T00:41:06;21.75;;;15.13;;
2644;SDS011;15377;48.540;9.268;2022-11-11T00:43:32;24.30;;;15.27;;
2644;SDS011;15377;48.540;9.268;2022-11-11T00:45:57;24.27;;;14.57;;
2644;SDS011;15377;48.540;9.268;2022-11-11T00:48:42;19.00;;;12.98;;
2644;SDS011;15377;48.540;9.268;2022-11-11T00:51:25;19.45;;;10.80;;
2644;SDS011;15377;48.540;9.268;2022-11-11T00:53:51;19.67;;;11.13;;
2644;SDS011;15377;48.540;9.268;2022-11-11T00:56:16;21.83;;;11.07;;
2644;SDS011;15377;48.540;9.268;2022-11-11T00:58:42;14.57;;;9.97;;
2644;SDS011;15377;48.540;9.268;2022-11-11T01:01:07;17.07;;;10.70;;
2644;SDS011;15377;48.540;9.268;2022-11-11T01:03:33;19.67;;;12.97;;
2644;SDS011;15377;48.540;9.268;2022-11-11T01:06:01;22.73;;;14.43;;
2644;SDS011;15377;48.540;9.268;2022-11-11T01:08:29;18.90;;;12.25;;
2644;SDS011;15377;48.540;9.268;2022-11-11T01:10:55;22.52;;;12.65;;
2644;SDS011;15377;48.540;9.268;2022-11-11T01:13:21;22.10;;;13.30;;
2644;SDS011;15377;48.540;9.268;2022-11-11T01:15:49;23.90;;;15.93;;
2644;SDS011;15377;48.540;9.268;2022-11-11T01:18:18;16.15;;;11.15;;
2644;SDS011;15377;48.540;9.268;2022-11-11T01:20:45;17.88;;;12.85;;
2644;SDS011;15377;48.540;9.268;2022-11-11T01:23:11;16.37;;;10.40;;
2644;SDS011;15377;48.540;9.268;2022-11-11T01:25:38;20.85;;;11.40;;
2644;SDS011;15377;48.540;9.268;2022-11-11T01:28:06;19.58;;;10.88;;
2644;SDS011;15377;48.540;9.268;2022-11-11T01:30:33;16.60;;;12.48;;
2644;SDS011;15377;48.540;9.268;2022-11-11T01:33:00;20.40;;;13.68;;
2644;SDS011;15377;48.540;9.268;2022-11-11T01:35:26;22.73;;;15.40;;
2644;SDS011;15377;48.540;9.268;2022-11-11T01:37:51;23.70;;;16.80;;
2644;SDS011;15377;48.540;9.268;2022-11-11T01:40:16;27.53;;;16.70;;
2644;SDS011;15377;48.540;9.268;2022-11-11T01:42:48;30.43;;;18.40;;
2644;SDS011;15377;48.540;9.268;2022-11-11T01:51:04;24.17;;;14.30;;
2644;SDS011;15377;48.540;9.268;2022-11-11T01:53:34;19.95;;;13.25;;
2644;SDS011;15377;48.540;9.268;2022-11-11T01:55:59;19.40;;;12.97;;
2644;SDS011;15377;48.540;9.268;2022-11-11T01:58:26;21.23;;;14.43;;
2644;SDS011;15377;48.540;9.268;2022-11-11T02:00:53;24.40;;;15.55;;
2644;SDS011;15377;48.540;9.268;2022-11-11T02:03:20;39.47;;;18.67;;
2644;SDS011;15377;48.540;9.268;2022-11-11T02:05:47;23.75;;;15.48;;
2644;SDS011;15377;48.540;9.268;2022-11-11T02:10:59;27.30;;;17.77;;
2644;SDS011;15377;48.540;9.268;2022-11-11T02:13:28;25.48;;;16.75;;
2644;SDS011;15377;48.540;9.268;2022-11-11T02:16:13;25.17;;;16.05;;
2644;SDS011;15377;48.540;9.268;2022-11-11T02:18:39;24.53;;;15.90;;
2644;SDS011;15377;48.540;9.268;2022-11-11T02:21:05;24.27;;;15.52;;
2644;SDS011;15377;48.540;9.268;2022-11-11T02:26:08;25.42;;;16.42;;
2644;SDS011;15377;48.540;9.268;2022-11-11T02:28:38;19.10;;;13.27;;
2644;SDS011;15377;48.540;9.268;2022-11-11T02:31:04;19.07;;;12.73;;
2644;SDS011;15377;48.540;9.268;2022-11-11T02:33:29;19.40;;;13.73;;
2644;SDS011;15377;48.540;9.268;2022-11-11T02:35:55;19.67;;;13.63;;
2644;SDS011;15377;48.540;9.268;2022-11-11T02:38:23;19.00;;;13.40;;
2644;SDS011;15377;48.540;9.268;2022-11-11T02:40:50;20.55;;;12.85;;
2644;SDS011;15377;48.540;9.268;2022-11-11T02:43:34;20.10;;;13.30;;
2644;SDS011;15377;48.540;9.268;2022-11-11T02:46:01;19.80;;;12.80;;
2644;SDS011;15377;48.540;9.268;2022-11-11T02:48:28;18.45;;;13.18;;
2644;SDS011;15377;48.540;9.268;2022-11-11T02:50:54;21.03;;;14.37;;
2644;SDS011;15377;48.540;9.268;2022-11-11T02:53:20;20.40;;;14.33;;
2644;SDS011;15377;48.540;9.268;2022-11-11T02:55:45;19.17;;;13.98;;
2644;SDS011;15377;48.540;9.268;2022-11-11T02:58:11;25.67;;;14.60;;
2644;SDS011;15377;48.540;9.268;2022-11-11T03:00:37;22.23;;;13.60;;
2644;SDS011;15377;48.540;9.268;2022-11-11T03:03:03;19.40;;;12.97;;
2644;SDS011;15377;48.540;9.268;2022-11-11T03:05:28;26.87;;;14.87;;
2644;SDS011;15377;48.540;9.268;2022-11-11T03:07:54;24.40;;;16.50;;
2644;SDS011;15377;48.540;9.268;2022-11-11T03:10:19;26.60;;;15.53;;
2644;SDS011;15377;48.540;9.268;2022-11-11T03:12:46;26.75;;;16.67;;
2644;SDS011;15377;48.540;9.268;2022-11-11T03:15:11;24.23;;;17.90;;
2644;SDS011;15377;48.540;9.268;2022-11-11T03:17:37;26.90;;;17.40;;
2644;SDS011;15377;48.540;9.268;2022-11-11T03:23:09;27.08;;;16.88;;
2644;SDS011;15377;48.540;9.268;2022-11-11T03:25:37;26.70;;;17.67;;
2644;SDS011;15377;48.540;9.268;2022-11-11T03:28:05;26.05;;;16.30;;
2644;SDS011;15377;48.540;9.268;2022-11-11T03:30:33;23.63;;;15.65;;
2644;SDS011;15377;48.540;9.268;2022-11-11T03:32:58;24.73;;;14.15;;
2644;SDS011;15377;48.540;9.268;2022-11-11T03:35:24;25.67;;;14.07;;
2644;SDS011;15377;48.540;9.268;2022-11-11T03:37:50;23.20;;;13.80;;
2644;SDS011;15377;48.540;9.268;2022-11-11T03:40:42;25.00;;;14.60;;
2644;SDS011;15377;48.540;9.268;2022-11-11T03:43:08;27.23;;;14.95;;
2644;SDS011;15377;48.540;9.268;2022-11-11T03:45:34;25.33;;;17.13;;
2644;SDS011;15377;48.540;9.268;2022-11-11T03:47:59;30.00;;;17.70;;
2644;SDS011;15377;48.540;9.268;2022-11-11T03:50:25;28.00;;;17.60;;
2644;SDS011;15377;48.540;9.268;2022-11-11T03:52:50;28.70;;;18.73;;
2644;SDS011;15377;48.540;9.268;2022-11-11T03:55:15;31.40;;;20.20;;
2644;SDS011;15377;48.540;9.268;2022-11-11T03:57:42;29.67;;;18.13;;
2644;SDS011;15377;48.540;9.268;2022-11-11T04:00:09;24.33;;;16.02;;
2644;SDS011;15377;48.540;9.268;2022-11-11T04:02:36;25.10;;;16.40;;
2644;SDS011;15377;48.540;9.268;2022-11-11T04:05:19;26.10;;;17.42;;
2644;SDS011;15377;48.540;9.268;2022-11-11T04:08:03;24.02;;;15.57;;
2644;SDS011;15377;48.540;9.268;2022-11-11T04:10:47;23.95;;;15.63;;
2644;SDS011;15377;48.540;9.268;2022-11-11T04:13:13;27.73;;;17.83;;
2644;SDS011;15377;48.540;9.268;2022-11-11T04:15:57;21.88;;;14.80;;
2644;SDS011;15377;48.540;9.268;2022-11-11T04:18:31;21.38;;;14.02;;
2644;SDS011;15377;48.540;9.268;2022-11-11T04:21:15;21.92;;;14.68;;
2644;SDS011;15377;48.540;9.268;2022-11-11T04:24:00;24.15;;;15.80;;
2644;SDS011;15377;48.540;9.268;2022-11-11T04:26:25;27.40;;;15.37;;
2644;SDS011;15377;48.540;9.268;2022-11-11T04:28:51;20.20;;;15.10;;
2644;SDS011;15377;48.540;9.268;2022-11-11T04:31:35;28.42;;;14.25;;
2644;SDS011;15377;48.540;9.268;2022-11-11T04:34:00;23.47;;;14.40;;
2644;SDS011;15377;48.540;9.268;2022-11-11T04:36:26;21.73;;;14.10;;
2644;SDS011;15377;48.540;9.268;2022-11-11T04:38:51;21.37;;;15.50;;
2644;SDS011;15377;48.540;9.268;2022-11-11T04:41:35;21.00;;;14.05;;
2644;SDS011;15377;48.540;9.268;2022-11-11T04:44:01;22.43;;;15.53;;
2644;SDS011;15377;48.540;9.268;2022-11-11T04:46:45;28.80;;;16.20;;
2644;SDS011;15377;48.540;9.268;2022-11-11T04:49:10;27.40;;;16.47;;
2644;SDS011;15377;48.540;9.268;2022-11-11T04:51:35;24.13;;;16.83;;
2644;SDS011;15377;48.540;9.268;2022-11-11T04:54:33;27.98;;;17.17;;
2644;SDS011;15377;48.540;9.268;2022-11-11T04:57:18;28.40;;;17.30;;
2644;SDS011;15377;48.540;9.268;2022-11-11T04:59:43;24.83;;;16.03;;
2644;SDS011;15377;48.540;9.268;2022-11-11T05:02:09;29.30;;;18.07;;
2644;SDS011;15377;48.540;9.268;2022-11-11T05:04:53;28.98;;;17.50;;
2644;SDS011;15377;48.540;9.268;2022-11-11T05:07:18;25.13;;;18.37;;
2644;SDS011;15377;48.540;9.268;2022-11-11T05:10:02;25.92;;;17.50;;
2644;SDS011;15377;48.540;9.268;2022-11-11T05:12:27;28.20;;;18.10;;
2644;SDS011;15377;48.540;9.268;2022-11-11T05:14:53;33.73;;;16.73;;
2644;SDS011;15377;48.540;9.268;2022-11-11T05:17:36;25.65;;;16.27;;
2644;SDS011;15377;48.540;9.268;2022-11-11T05:20:40;28.13;;;18.05;;
2644;SDS011;15377;48.540;9.268;2022-11-11T05:23:24;28.15;;;17.02;;
2644;SDS011;15377;48.540;9.268;2022-11-11T05:26:12;27.75;;;16.45;;
2644;SDS011;15377;48.540;9.268;2022-11-11T05:28:37;26.03;;;18.20;;
2644;SDS011;15377;48.540;9.268;2022-11-11T05:31:03;25.73;;;15.93;;
2644;SDS011;15377;48.540;9.268;2022-11-11T05:33:28;25.30;;;15.93;;
2644;SDS011;15377;48.540;9.268;2022-11-11T05:35:53;24.10;;;15.60;;
2644;SDS011;15377;48.540;9.268;2022-11-11T05:38:18;24.13;;;16.20;;
2644;SDS011;15377;48.540;9.268;2022-11-11T05:40:44;24.20;;;15.83;;
2644;SDS011;15377;48.540;9.268;2022-11-11T05:43:09;20.30;;;16.40;;
2644;SDS011;15377;48.540;9.268;2022-11-11T05:45:34;22.40;;;15.23;;
2644;SDS011;15377;48.540;9.268;2022-11-11T05:48:00;25.77;;;14.03;;
2644;SDS011;15377;48.540;9.268;2022-11-11T05:50:26;26.67;;;15.60;;
2644;SDS011;15377;48.540;9.268;2022-11-11T05:52:52;21.20;;;15.13;;
2644;SDS011;15377;48.540;9.268;2022-11-11T05:55:17;22.37;;;14.40;;
2644;SDS011;15377;48.540;9.268;2022-11-11T05:57:43;29.23;;;14.73;;
2644;SDS011;15377;48.540;9.268;2022-11-11T06:00:09;21.30;;;13.23;;
2644;SDS011;15377;48.540;9.268;2022-11-11T06:02:34;22.60;;;13.83;;
2644;SDS011;15377;48.540;9.268;2022-11-11T06:05:00;27.63;;;18.13;;
2644;SDS011;15377;48.540;9.268;2022-11-11T06:07:25;39.97;;;24.67;;
2644;SDS011;15377;48.540;9.268;2022-11-11T06:09:50;22.50;;;12.97;;
2644;SDS011;15377;48.540;9.268;2022-11-11T06:12:16;23.77;;;14.03;;
2644;SDS011;15377;48.540;9.268;2022-11-11T06:14:41;24.93;;;15.17;;
2644;SDS011;15377;48.540;9.268;2022-11-11T06:17:06;19.60;;;12.33;;
2644;SDS011;15377;48.540;9.268;2022-11-11T06:19:32;21.90;;;12.63;;
2644;SDS011;15377;48.540;9.268;2022-11-11T06:21:57;19.27;;;12.77;;
2644;SDS011;15377;48.540;9.268;2022-11-11T06:24:23;24.30;;;14.10;;
2644;SDS011;15377;48.540;9.268;2022-11-11T06:26:48;21.83;;;13.60;;
2644;SDS011;15377;48.540;9.268;2022-11-11T06:29:14;24.83;;;16.90;;
2644;SDS011;15377;48.540;9.268;2022-11-11T06:31:39;23.33;;;15.20;;
2644;SDS011;15377;48.540;9.268;2022-11-11T06:34:04;26.40;;;15.67;;
2644;SDS011;15377;48.540;9.268;2022-11-11T06:36:30;21.00;;;14.57;;
2644;SDS011;15377;48.540;9.268;2022-11-11T06:38:55;25.20;;;15.20;;
2644;SDS011;15377;48.540;9.268;2022-11-11T06:41:20;25.63;;;16.37;;
2644;SDS011;15377;48.540;9.268;2022-11-11T06:43:48;28.42;;;15.02;;
2644;SDS011;15377;48.540;9.268;2022-11-11T06:46:19;32.10;;;19.40;;
2644;SDS011;15377;48.540;9.268;2022-11-11T06:48:47;34.80;;;23.73;;
2644;SDS011;15377;48.540;9.268;2022-11-11T06:51:12;31.27;;;18.03;;
2644;SDS011;15377;48.540;9.268;2022-11-11T06:53:38;29.75;;;16.60;;
2644;SDS011;15377;48.540;9.268;2022-11-11T06:56:06;23.63;;;15.47;;
2644;SDS011;15377;48.540;9.268;2022-11-11T06:58:32;26.17;;;16.38;;
2644;SDS011;15377;48.540;9.268;2022-11-11T07:00:58;25.37;;;15.43;;
2644;SDS011;15377;48.540;9.268;2022-11-11T07:03:23;26.63;;;17.90;;
2644;SDS011;15377;48.540;9.268;2022-11-11T07:05:48;23.00;;;15.90;;
2644;SDS011;15377;48.540;9.268;2022-11-11T07:08:17;25.03;;;17.40;;
2644;SDS011;15377;48.540;9.268;2022-11-11T07:10:47;25.85;;;16.55;;
2644;SDS011;15377;48.540;9.268;2022-11-11T07:13:15;22.58;;;14.13;;
2644;SDS011;15377;48.540;9.268;2022-11-11T07:15:41;23.08;;;14.50;;
2644;SDS011;15377;48.540;9.268;2022-11-11T07:18:10;23.30;;;14.60;;
2644;SDS011;15377;48.540;9.268;2022-11-11T07:20:36;23.60;;;14.13;;
2644;SDS011;15377;48.540;9.268;2022-11-11T07:23:02;22.92;;;13.85;;
2644;SDS011;15377;48.540;9.268;2022-11-11T07:25:28;19.55;;;13.80;;
2644;SDS011;15377;48.540;9.268;2022-11-11T07:27:54;21.97;;;15.50;;
2644;SDS011;15377;48.540;9.268;2022-11-11T07:30:19;22.07;;;15.27;;
2644;SDS011;15377;48.540;9.268;2022-11-11T07:32:46;27.93;;;14.87;;
2644;SDS011;15377;48.540;9.268;2022-11-11T07:35:13;25.98;;;15.30;;
2644;SDS011;15377;48.540;9.268;2022-11-11T07:37:39;23.98;;;16.15;;
2644;SDS011;15377;48.540;9.268;2022-11-11T07:40:05;20.15;;;14.68;;
2644;SDS011;15377;48.540;9.268;2022-11-11T07:42:32;24.77;;;17.05;;
2644;SDS011;15377;48.540;9.268;2022-11-11T07:45:00;21.48;;;13.32;;
2644;SDS011;15377;48.540;9.268;2022-11-11T07:47:25;20.87;;;14.23;;
2644;SDS011;15377;48.540;9.268;2022-11-11T07:49:50;19.87;;;13.50;;
2644;SDS011;15377;48.540;9.268;2022-11-11T07:52:16;23.47;;;15.53;;
2644;SDS011;15377;48.540;9.268;2022-11-11T07:54:41;23.80;;;16.33;;
2644;SDS011;15377;48.540;9.268;2022-11-11T07:57:06;22.70;;;15.50;;
2644;SDS011;15377;48.540;9.268;2022-11-11T07:59:32;22.57;;;14.50;;
2644;SDS011;15377;48.540;9.268;2022-11-11T08:01:57;23.03;;;15.53;;
2644;SDS011;15377;48.540;9.268;2022-11-11T08:04:23;24.57;;;15.10;;
2644;SDS011;15377;48.540;9.268;2022-11-11T08:06:48;20.70;;;14.40;;
2644;SDS011;15377;48.540;9.268;2022-11-11T08:09:13;22.90;;;14.40;;
2644;SDS011;15377;48.540;9.268;2022-11-11T08:11:39;21.50;;;13.80;;
2644;SDS011;15377;48.540;9.268;2022-11-11T08:14:22;23.08;;;14.85;;
2644;SDS011;15377;48.540;9.268;2022-11-11T08:16:48;19.73;;;14.17;;
2644;SDS011;15377;48.540;9.268;2022-11-11T08:19:13;21.33;;;14.80;;
2644;SDS011;15377;48.540;9.268;2022-11-11T08:21:39;18.20;;;14.40;;
2644;SDS011;15377;48.540;9.268;2022-11-11T08:24:04;20.50;;;13.97;;
2644;SDS011;15377;48.540;9.268;2022-11-11T08:26:29;23.50;;;15.63;;
2644;SDS011;15377;48.540;9.268;2022-11-11T08:28:55;19.90;;;14.47;;
2644;SDS011;15377;48.540;9.268;2022-11-11T08:31:21;23.90;;;13.85;;
2644;SDS011;15377;48.540;9.268;2022-11-11T08:33:46;22.30;;;14.50;;
2644;SDS011;15377;48.540;9.268;2022-11-11T08:36:12;18.27;;;14.10;;
2644;SDS011;15377;48.540;9.268;2022-11-11T08:38:37;23.37;;;14.23;;
2644;SDS011;15377;48.540;9.268;2022-11-11T08:41:04;20.70;;;13.70;;
2644;SDS011;15377;48.540;9.268;2022-11-11T08:43:31;19.25;;;14.05;;
2644;SDS011;15377;48.540;9.268;2022-11-11T08:45:58;19.23;;;12.50;;
2644;SDS011;15377;48.540;9.268;2022-11-11T08:48:24;17.10;;;13.02;;
2644;SDS011;15377;48.540;9.268;2022-11-11T08:50:51;17.37;;;12.57;;
2644;SDS011;15377;48.540;9.268;2022-11-11T08:53:17;16.40;;;11.30;;
2644;SDS011;15377;48.540;9.268;2022-11-11T08:55:43;17.27;;;11.93;;
2644;SDS011;15377;48.540;9.268;2022-11-11T08:58:09;15.60;;;12.13;;
2644;SDS011;15377;48.540;9.268;2022-11-11T09:00:35;14.40;;;10.65;;
2644;SDS011;15377;48.540;9.268;2022-11-11T09:03:01;15.37;;;11.10;;
2644;SDS011;15377;48.540;9.268;2022-11-11T09:05:28;13.40;;;10.90;;
2644;SDS011;15377;48.540;9.268;2022-11-11T09:07:53;16.70;;;11.90;;
2644;SDS011;15377;48.540;9.268;2022-11-11T09:10:18;13.23;;;10.13;;
2644;SDS011;15377;48.540;9.268;2022-11-11T09:12:44;19.20;;;10.63;;
2644;SDS011;15377;48.540;9.268;2022-11-11T09:15:09;13.67;;;9.87;;
2644;SDS011;15377;48.540;9.268;2022-11-11T09:17:34;11.67;;;9.30;;
2644;SDS011;15377;48.540;9.268;2022-11-11T09:20:00;11.87;;;8.50;;
2644;SDS011;15377;48.540;9.268;2022-11-11T09:22:25;11.10;;;8.20;;
2644;SDS011;15377;48.540;9.268;2022-11-11T09:24:50;13.10;;;8.00;;
2644;SDS011;15377;48.540;9.268;2022-11-11T09:27:16;14.03;;;7.63;;
2644;SDS011;15377;48.540;9.268;2022-11-11T09:29:41;11.40;;;7.50;;
2644;SDS011;15377;48.540;9.268;2022-11-11T09:32:06;11.17;;;7.80;;
2644;SDS011;15377;48.540;9.268;2022-11-11T09:34:32;11.83;;;6.70;;
2644;SDS011;15377;48.540;9.268;2022-11-11T09:36:57;10.87;;;7.37;;
2644;SDS011;15377;48.540;9.268;2022-11-11T09:39:22;14.33;;;8.27;;
2644;SDS011;15377;48.540;9.268;2022-11-11T09:47:09;11.67;;;7.80;;
2644;SDS011;15377;48.540;9.268;2022-11-11T09:49:50;9.63;;;6.60;;
2644;SDS011;15377;48.540;9.268;2022-11-11T09:52:28;11.50;;;6.60;;
2644;SDS011;15377;48.540;9.268;2022-11-11T09:57:52;11.93;;;7.40;;
2644;SDS011;15377;48.540;9.268;2022-11-11T10:00:24;9.50;;;7.07;;
2644;SDS011;15377;48.540;9.268;2022-11-11T10:02:52;10.33;;;6.77;;
2644;SDS011;15377;48.540;9.268;2022-11-11T10:05:29;10.37;;;7.70;;
2644;SDS011;15377;48.540;9.268;2022-11-11T10:07:59;12.83;;;7.90;;
2644;SDS011;15377;48.540;9.268;2022-11-11T10:10:48;10.73;;;7.40;;
2644;SDS011;15377;48.540;9.268;2022-11-11T10:20:54;10.90;;;7.97;;
2644;SDS011;15377;48.540;9.268;2022-11-11T10:23:31;13.37;;;7.40;;
2644;SDS011;15377;48.540;9.268;2022-11-11T10:26:01;10.20;;;7.90;;
2644;SDS011;15377;48.540;9.268;2022-11-11T10:28:32;9.57;;;7.00;;
2644;SDS011;15377;48.540;9.268;2022-11-11T10:31:02;10.33;;;6.63;;
2644;SDS011;15377;48.540;9.268;2022-11-11T10:36:27;8.57;;;7.03;;
2644;SDS011;15377;48.540;9.268;2022-11-11T10:41:26;9.83;;;6.10;;
2644;SDS011;15377;48.540;9.268;2022-11-11T10:43:57;8.63;;;5.87;;
2644;SDS011;15377;48.540;9.268;2022-11-11T10:46:24;8.63;;;5.07;;
2644;SDS011;15377;48.540;9.268;2022-11-11T10:51:25;13.10;;;5.67;;
2644;SDS011;15377;48.540;9.268;2022-11-11T10:56:25;11.20;;;5.20;;
2644;SDS011;15377;48.540;9.268;2022-11-11T11:01:53;7.73;;;4.87;;
2644;SDS011;15377;48.540;9.268;2022-11-11T11:04:28;9.43;;;4.90;;
2644;SDS011;15377;48.540;9.268;2022-11-11T11:06:59;9.37;;;5.07;;
2644;SDS011;15377;48.540;9.268;2022-11-11T11:09:29;9.20;;;5.40;;
2644;SDS011;15377;48.540;9.268;2022-11-11T11:12:06;9.43;;;5.70;;
2644;SDS011;15377;48.540;9.268;2022-11-11T11:14:44;8.17;;;4.73;;
2644;SDS011;15377;48.540;9.268;2022-11-11T11:20:18;8.53;;;5.10;;
2644;SDS011;15377;48.540;9.268;2022-11-11T11:23:02;8.50;;;5.83;;
2644;SDS011;15377;48.540;9.268;2022-11-11T11:25:30;9.83;;;5.07;;
2644;SDS011;15377;48.540;9.268;2022-11-11T11:28:07;9.63;;;4.90;;
2644;SDS011;15377;48.540;9.268;2022-11-11T11:30:37;10.33;;;5.13;;
2644;SDS011;15377;48.540;9.268;2022-11-11T11:33:04;9.83;;;5.20;;
2644;SDS011;15377;48.540;9.268;2022-11-11T11:35:38;6.83;;;4.10;;
2644;SDS011;15377;48.540;9.268;2022-11-11T11:38:06;8.30;;;4.77;;
2644;SDS011;15377;48.540;9.268;2022-11-11T11:46:00;8.87;;;5.20;;
2644;SDS011;15377;48.540;9.268;2022-11-11T11:58:57;8.03;;;4.47;;
2644;SDS011;15377;48.540;9.268;2022-11-11T12:01:31;9.87;;;4.23;;
2644;SDS011;15377;48.540;9.268;2022-11-11T12:04:12;13.00;;;4.60;;
2644;SDS011;15377;48.540;9.268;2022-11-11T12:07:00;8.47;;;4.07;;
2644;SDS011;15377;48.540;9.268;2022-11-11T12:12:39;8.63;;;3.90;;
2644;SDS011;15377;48.540;9.268;2022-11-11T12:15:31;7.10;;;3.57;;
2644;SDS011;15377;48.540;9.268;2022-11-11T12:18:11;8.87;;;4.03;;
2644;SDS011;15377;48.540;9.268;2022-11-11T12:20:53;7.83;;;4.00;;
2644;SDS011;15377;48.540;9.268;2022-11-11T12:31:37;9.27;;;4.60;;
2644;SDS011;15377;48.540;9.268;2022-11-11T12:37:24;10.40;;;4.63;;
2644;SDS011;15377;48.540;9.268;2022-11-11T12:43:04;8.67;;;4.23;;
2644;SDS011;15377;48.540;9.268;2022-11-11T12:57:05;7.33;;;3.97;;
2644;SDS011;15377;48.540;9.268;2022-11-11T12:59:41;7.00;;;4.10;;
2644;SDS011;15377;48.540;9.268;2022-11-11T13:02:41;7.40;;;4.63;;
2644;SDS011;15377;48.540;9.268;2022-11-11T13:05:12;8.80;;;5.50;;
2644;SDS011;15377;48.540;9.268;2022-11-11T13:11:02;9.23;;;5.87;;
2644;SDS011;15377;48.540;9.268;2022-11-11T13:14:03;8.83;;;5.93;;
2644;SDS011;15377;48.540;9.268;2022-11-11T13:16:49;11.57;;;5.57;;
2644;SDS011;15377;48.540;9.268;2022-11-11T13:19:58;11.37;;;6.53;;
2644;SDS011;15377;48.540;9.268;2022-11-11T13:24:51;9.50;;;6.03;;
2644;SDS011;15377;48.540;9.268;2022-11-11T13:27:28;9.63;;;5.80;;
2644;SDS011;15377;48.540;9.268;2022-11-11T13:30:02;8.30;;;4.83;;
2644;SDS011;15377;48.540;9.268;2022-11-11T13:32:33;10.20;;;5.50;;
2644;SDS011;15377;48.540;9.268;2022-11-11T13:37:56;8.20;;;5.23;;
2644;SDS011;15377;48.540;9.268;2022-11-11T13:40:25;11.27;;;5.63;;
2644;SDS011;15377;48.540;9.268;2022-11-11T13:42:58;9.70;;;5.10;;
2644;SDS011;15377;48.540;9.268;2022-11-11T13:45:34;8.43;;;4.80;;
2644;SDS011;15377;48.540;9.268;2022-11-11T13:48:03;8.40;;;4.63;;
2644;SDS011;15377;48.540;9.268;2022-11-11T13:50:31;11.23;;;4.90;;
2644;SDS011;15377;48.540;9.268;2022-11-11T13:53:03;11.70;;;5.73;;
2644;SDS011;15377;48.540;9.268;2022-11-11T13:55:32;8.90;;;5.47;;
2644;SDS011;15377;48.540;9.268;2022-11-11T13:58:01;8.37;;;5.67;;
2644;SDS011;15377;48.540;9.268;2022-11-11T14:00:36;9.27;;;5.57;;
2644;SDS011;15377;48.540;9.268;2022-11-11T14:08:57;7.50;;;4.93;;
2644;SDS011;15377;48.540;9.268;2022-11-11T14:13:49;9.33;;;5.83;;
2644;SDS011;15377;48.540;9.268;2022-11-11T14:19:41;7.90;;;5.60;;
2644;SDS011;15377;48.540;9.268;2022-11-11T14:21:49;13.67;;;5.07;;
2644;SDS011;15377;48.540;9.268;2022-11-11T14:24:21;9.17;;;5.13;;
2644;SDS011;15377;48.540;9.268;2022-11-11T14:29:33;11.13;;;6.10;;
2644;SDS011;15377;48.540;9.268;2022-11-11T14:37:13;9.90;;;4.90;;
2644;SDS011;15377;48.540;9.268;2022-11-11T14:39:44;10.20;;;5.53;;
2644;SDS011;15377;48.540;9.268;2022-11-11T14:44:58;8.60;;;5.40;;
2644;SDS011;15377;48.540;9.268;2022-11-11T14:47:24;9.87;;;5.20;;
2644;SDS011;15377;48.540;9.268;2022-11-11T14:49:59;8.40;;;5.03;;
2644;SDS011;15377;48.540;9.268;2022-11-11T14:52:27;9.50;;;6.10;;
2644;SDS011;15377;48.540;9.268;2022-11-11T14:57:27;10.77;;;6.00;;
2644;SDS011;15377;48.540;9.268;2022-11-11T14:59:56;10.90;;;5.93;;
2644;SDS011;15377;48.540;9.268;2022-11-11T15:02:28;8.70;;;5.33;;
2644;SDS011;15377;48.540;9.268;2022-11-11T15:05:13;8.13;;;4.70;;
2644;SDS011;15377;48.540;9.268;2022-11-11T15:19:03;9.20;;;5.47;;
2644;SDS011;15377;48.540;9.268;2022-11-11T15:21:34;8.53;;;5.23;;
2644;SDS011;15377;48.540;9.268;2022-11-11T15:24:09;11.33;;;7.80;;
2644;SDS011;15377;48.540;9.268;2022-11-11T15:29:48;10.30;;;6.23;;
2644;SDS011;15377;48.540;9.268;2022-11-11T15:33:01;11.00;;;5.90;;
2644;SDS011;15377;48.540;9.268;2022-11-11T15:38:30;19.83;;;12.20;;
2644;SDS011;15377;48.540;9.268;2022-11-11T15:40:56;17.13;;;11.50;;
2644;SDS011;15377;48.540;9.268;2022-11-11T15:43:25;13.90;;;9.67;;
2644;SDS011;15377;48.540;9.268;2022-11-11T15:45:57;15.80;;;9.23;;
2644;SDS011;15377;48.540;9.268;2022-11-11T15:48:25;11.60;;;7.93;;
2644;SDS011;15377;48.540;9.268;2022-11-11T15:50:53;16.10;;;7.70;;
2644;SDS011;15377;48.540;9.268;2022-11-11T15:53:23;13.20;;;6.93;;
2644;SDS011;15377;48.540;9.268;2022-11-11T15:55:54;12.70;;;7.20;;
2644;SDS011;15377;48.540;9.268;2022-11-11T15:58:31;10.20;;;6.70;;
2644;SDS011;15377;48.540;9.268;2022-11-11T16:00:57;10.43;;;6.63;;
2644;SDS011;15377;48.540;9.268;2022-11-11T16:03:38;13.17;;;7.30;;
2644;SDS011;15377;48.540;9.268;2022-11-11T16:06:15;14.83;;;7.40;;
2644;SDS011;15377;48.540;9.268;2022-11-11T16:08:41;13.73;;;7.47;;
2644;SDS011;15377;48.540;9.268;2022-11-11T16:11:10;13.13;;;8.23;;
2644;SDS011;15377;48.540;9.268;2022-11-11T16:13:39;14.73;;;7.90;;
2644;SDS011;15377;48.540;9.268;2022-11-11T16:16:13;12.80;;;6.40;;
2644;SDS011;15377;48.540;9.268;2022-11-11T16:18:45;11.47;;;6.60;;
2644;SDS011;15377;48.540;9.268;2022-11-11T16:21:27;12.87;;;7.70;;
2644;SDS011;15377;48.540;9.268;2022-11-11T16:23:59;14.00;;;6.80;;
2644;SDS011;15377;48.540;9.268;2022-11-11T16:26:26;11.07;;;7.60;;
2644;SDS011;15377;48.540;9.268;2022-11-11T16:28:53;11.87;;;7.30;;
2644;SDS011;15377;48.540;9.268;2022-11-11T16:33:58;10.27;;;7.27;;
2644;SDS011;15377;48.540;9.268;2022-11-11T16:36:24;12.90;;;7.90;;
2644;SDS011;15377;48.540;9.268;2022-11-11T16:38:50;15.33;;;8.43;;
2644;SDS011;15377;48.540;9.268;2022-11-11T16:41:22;17.10;;;9.30;;
2644;SDS011;15377;48.540;9.268;2022-11-11T16:43:49;16.83;;;10.73;;
2644;SDS011;15377;48.540;9.268;2022-11-11T16:46:36;12.20;;;9.45;;
2644;SDS011;15377;48.540;9.268;2022-11-11T16:49:12;13.57;;;9.75;;
2644;SDS011;15377;48.540;9.268;2022-11-11T16:51:42;13.65;;;8.40;;
2644;SDS011;15377;48.540;9.268;2022-11-11T16:56:44;14.23;;;8.48;;
2644;SDS011;15377;48.540;9.268;2022-11-11T16:59:18;13.55;;;8.10;;
2644;SDS011;15377;48.540;9.268;2022-11-11T17:01:47;12.00;;;7.03;;
2644;SDS011;15377;48.540;9.268;2022-11-11T17:04:13;13.97;;;7.63;;
2644;SDS011;15377;48.540;9.268;2022-11-11T17:06:46;15.30;;;8.20;;
2644;SDS011;15377;48.540;9.268;2022-11-11T17:09:36;13.10;;;8.87;;
2644;SDS011;15377;48.540;9.268;2022-11-11T17:12:05;18.20;;;11.60;;
2644;SDS011;15377;48.540;9.268;2022-11-11T17:14:32;15.60;;;10.85;;
2644;SDS011;15377;48.540;9.268;2022-11-11T17:16:59;16.90;;;10.67;;
2644;SDS011;15377;48.540;9.268;2022-11-11T17:19:25;19.73;;;12.13;;
2644;SDS011;15377;48.540;9.268;2022-11-11T17:21:51;21.27;;;12.80;;
2644;SDS011;15377;48.540;9.268;2022-11-11T17:24:16;20.30;;;14.50;;